sensor_id;sensor_type;location;lat;lon;timestamp;P1;durP1;ratioP1;P2;durP2;ratioP2
22007;SDS011;11168;56.976;24.168;2023-01-09T00:00:50;30.00;;;13.38;;
22007;SDS011;11168;56.976;24.168;2023-01-09T00:03:18;30.13;;;13.00;;
22007;SDS011;11168;56.976;24.168;2023-01-09T00:05:45;27.80;;;13.30;;
22007;SDS011;11168;56.976;24.168;2023-01-09T00:08:12;27.50;;;12.35;;
22007;SDS011;11168;56.976;24.168;2023-01-09T00:10:39;26.67;;;12.13;;
22007;SDS011;11168;56.976;24.168;2023-01-09T00:13:05;34.92;;;16.58;;
22007;SDS011;11168;56.976;24.168;2023-01-09T00:15:32;27.45;;;12.25;;
22007;SDS011;11168;56.976;24.168;2023-01-09T00:17:59;26.83;;;12.20;;
22007;SDS011;11168;56.976;24.168;2023-01-09T00:20:26;27.42;;;12.88;;
22007;SDS011;11168;56.976;24.168;2023-01-09T00:22:53;25.20;;;11.82;;
22007;SDS011;11168;56.976;24.168;2023-01-09T00:25:20;28.92;;;12.43;;
22007;SDS011;11168;56.976;24.168;2023-01-09T00:27:48;26.20;;;11.73;;
22007;SDS011;11168;56.976;24.168;2023-01-09T00:30:17;27.60;;;12.15;;
22007;SDS011;11168;56.976;24.168;2023-01-09T00:32:44;25.95;;;12.30;;
22007;SDS011;11168;56.976;24.168;2023-01-09T00:35:13;28.15;;;12.32;;
22007;SDS011;11168;56.976;24.168;2023-01-09T00:37:42;24.20;;;12.65;;
22007;SDS011;11168;56.976;24.168;2023-01-09T00:40:09;26.02;;;11.75;;
22007;SDS011;11168;56.976;24.168;2023-01-09T00:42:39;26.77;;;12.27;;
22007;SDS011;11168;56.976;24.168;2023-01-09T00:45:09;30.90;;;13.25;;
22007;SDS011;11168;56.976;24.168;2023-01-09T00:47:42;24.50;;;12.05;;
22007;SDS011;11168;56.976;24.168;2023-01-09T00:50:20;27.17;;;12.77;;
22007;SDS011;11168;56.976;24.168;2023-01-09T00:52:50;29.13;;;12.73;;
22007;SDS011;11168;56.976;24.168;2023-01-09T00:55:21;31.00;;;12.55;;
22007;SDS011;11168;56.976;24.168;2023-01-09T00:57:48;26.73;;;12.25;;
22007;SDS011;11168;56.976;24.168;2023-01-09T01:00:15;28.38;;;13.40;;
22007;SDS011;11168;56.976;24.168;2023-01-09T01:02:43;25.30;;;11.05;;
22007;SDS011;11168;56.976;24.168;2023-01-09T01:05:10;30.67;;;13.20;;
22007;SDS011;11168;56.976;24.168;2023-01-09T01:07:56;28.05;;;12.63;;
22007;SDS011;11168;56.976;24.168;2023-01-09T01:10:23;29.27;;;11.90;;
22007;SDS011;11168;56.976;24.168;2023-01-09T01:12:53;27.00;;;12.23;;
22007;SDS011;11168;56.976;24.168;2023-01-09T01:15:20;29.52;;;12.65;;
22007;SDS011;11168;56.976;24.168;2023-01-09T01:17:47;28.00;;;12.75;;
22007;SDS011;11168;56.976;24.168;2023-01-09T01:20:15;28.88;;;13.40;;
22007;SDS011;11168;56.976;24.168;2023-01-09T01:22:43;29.92;;;14.43;;
22007;SDS011;11168;56.976;24.168;2023-01-09T01:25:11;34.92;;;13.93;;
22007;SDS011;11168;56.976;24.168;2023-01-09T01:27:39;37.20;;;14.45;;
22007;SDS011;11168;56.976;24.168;2023-01-09T01:30:07;28.13;;;12.55;;
22007;SDS011;11168;56.976;24.168;2023-01-09T01:32:36;33.70;;;13.82;;
22007;SDS011;11168;56.976;24.168;2023-01-09T01:35:03;37.42;;;15.00;;
22007;SDS011;11168;56.976;24.168;2023-01-09T01:37:31;28.42;;;13.63;;
22007;SDS011;11168;56.976;24.168;2023-01-09T01:40:00;31.23;;;15.02;;
22007;SDS011;11168;56.976;24.168;2023-01-09T01:42:27;33.78;;;15.15;;
22007;SDS011;11168;56.976;24.168;2023-01-09T01:45:03;34.83;;;13.98;;
22007;SDS011;11168;56.976;24.168;2023-01-09T01:47:48;38.75;;;15.52;;
22007;SDS011;11168;56.976;24.168;2023-01-09T01:50:38;40.15;;;14.13;;
22007;SDS011;11168;56.976;24.168;2023-01-09T01:53:16;33.45;;;14.57;;
22007;SDS011;11168;56.976;24.168;2023-01-09T01:58:47;33.97;;;13.13;;
22007;SDS011;11168;56.976;24.168;2023-01-09T02:01:18;37.67;;;14.30;;
22007;SDS011;11168;56.976;24.168;2023-01-09T02:03:47;31.55;;;13.38;;
22007;SDS011;11168;56.976;24.168;2023-01-09T02:06:16;37.20;;;13.98;;
22007;SDS011;11168;56.976;24.168;2023-01-09T02:08:43;40.17;;;14.18;;
22007;SDS011;11168;56.976;24.168;2023-01-09T02:11:12;35.30;;;13.93;;
22007;SDS011;11168;56.976;24.168;2023-01-09T02:13:42;33.92;;;13.63;;
22007;SDS011;11168;56.976;24.168;2023-01-09T02:25:15;38.05;;;15.38;;
22007;SDS011;11168;56.976;24.168;2023-01-09T02:28:24;32.45;;;13.95;;
22007;SDS011;11168;56.976;24.168;2023-01-09T02:31:02;30.40;;;13.60;;
22007;SDS011;11168;56.976;24.168;2023-01-09T02:36:51;32.95;;;14.50;;
22007;SDS011;11168;56.976;24.168;2023-01-09T02:40:49;34.22;;;13.98;;
22007;SDS011;11168;56.976;24.168;2023-01-09T02:42:42;34.03;;;13.57;;
22007;SDS011;11168;56.976;24.168;2023-01-09T02:45:10;34.38;;;13.98;;
22007;SDS011;11168;56.976;24.168;2023-01-09T02:47:39;27.25;;;12.45;;
22007;SDS011;11168;56.976;24.168;2023-01-09T02:50:09;29.60;;;12.90;;
22007;SDS011;11168;56.976;24.168;2023-01-09T03:04:08;34.08;;;13.75;;
22007;SDS011;11168;56.976;24.168;2023-01-09T03:09:27;35.70;;;14.15;;
22007;SDS011;11168;56.976;24.168;2023-01-09T03:12:07;33.08;;;14.27;;
22007;SDS011;11168;56.976;24.168;2023-01-09T03:14:41;36.15;;;14.27;;
22007;SDS011;11168;56.976;24.168;2023-01-09T03:17:12;31.85;;;14.27;;
22007;SDS011;11168;56.976;24.168;2023-01-09T03:19:44;32.50;;;12.77;;
22007;SDS011;11168;56.976;24.168;2023-01-09T03:22:12;31.05;;;13.95;;
22007;SDS011;11168;56.976;24.168;2023-01-09T03:24:39;34.42;;;14.68;;
22007;SDS011;11168;56.976;24.168;2023-01-09T03:27:06;36.55;;;15.13;;
22007;SDS011;11168;56.976;24.168;2023-01-09T03:29:34;36.53;;;14.18;;
22007;SDS011;11168;56.976;24.168;2023-01-09T03:32:02;32.10;;;12.55;;
22007;SDS011;11168;56.976;24.168;2023-01-09T03:34:29;34.05;;;14.75;;
22007;SDS011;11168;56.976;24.168;2023-01-09T03:36:56;35.42;;;14.15;;
22007;SDS011;11168;56.976;24.168;2023-01-09T03:39:23;27.95;;;12.20;;
22007;SDS011;11168;56.976;24.168;2023-01-09T03:41:50;33.88;;;13.80;;
22007;SDS011;11168;56.976;24.168;2023-01-09T03:44:17;33.45;;;14.02;;
22007;SDS011;11168;56.976;24.168;2023-01-09T03:46:44;34.83;;;14.20;;
22007;SDS011;11168;56.976;24.168;2023-01-09T03:49:11;28.67;;;12.85;;
22007;SDS011;11168;56.976;24.168;2023-01-09T03:51:39;33.17;;;13.57;;
22007;SDS011;11168;56.976;24.168;2023-01-09T03:54:06;35.80;;;14.07;;
22007;SDS011;11168;56.976;24.168;2023-01-09T03:56:33;30.08;;;13.05;;
22007;SDS011;11168;56.976;24.168;2023-01-09T03:59:00;37.47;;;13.43;;
22007;SDS011;11168;56.976;24.168;2023-01-09T04:01:26;35.17;;;14.48;;
22007;SDS011;11168;56.976;24.168;2023-01-09T04:03:54;33.83;;;13.40;;
22007;SDS011;11168;56.976;24.168;2023-01-09T04:06:20;33.05;;;14.07;;
22007;SDS011;11168;56.976;24.168;2023-01-09T04:08:47;28.35;;;13.57;;
22007;SDS011;11168;56.976;24.168;2023-01-09T04:11:14;30.50;;;13.30;;
22007;SDS011;11168;56.976;24.168;2023-01-09T04:13:43;30.65;;;13.43;;
22007;SDS011;11168;56.976;24.168;2023-01-09T04:16:10;30.63;;;14.27;;
22007;SDS011;11168;56.976;24.168;2023-01-09T04:18:37;33.45;;;14.10;;
22007;SDS011;11168;56.976;24.168;2023-01-09T04:21:04;37.70;;;14.00;;
22007;SDS011;11168;56.976;24.168;2023-01-09T04:23:31;32.42;;;15.05;;
22007;SDS011;11168;56.976;24.168;2023-01-09T04:25:58;36.60;;;14.27;;
22007;SDS011;11168;56.976;24.168;2023-01-09T04:28:25;33.45;;;13.57;;
22007;SDS011;11168;56.976;24.168;2023-01-09T04:30:53;35.70;;;13.98;;
22007;SDS011;11168;56.976;24.168;2023-01-09T04:33:20;32.13;;;14.20;;
22007;SDS011;11168;56.976;24.168;2023-01-09T04:35:49;30.40;;;13.73;;
22007;SDS011;11168;56.976;24.168;2023-01-09T04:38:16;37.42;;;14.55;;
22007;SDS011;11168;56.976;24.168;2023-01-09T04:40:45;33.33;;;14.75;;
22007;SDS011;11168;56.976;24.168;2023-01-09T04:43:12;32.22;;;13.85;;
22007;SDS011;11168;56.976;24.168;2023-01-09T04:45:39;29.20;;;12.60;;
22007;SDS011;11168;56.976;24.168;2023-01-09T04:48:06;37.67;;;15.27;;
22007;SDS011;11168;56.976;24.168;2023-01-09T04:50:33;32.92;;;14.18;;
22007;SDS011;11168;56.976;24.168;2023-01-09T04:53:00;33.78;;;14.93;;
22007;SDS011;11168;56.976;24.168;2023-01-09T04:55:27;38.95;;;14.77;;
22007;SDS011;11168;56.976;24.168;2023-01-09T04:57:54;35.10;;;13.85;;
22007;SDS011;11168;56.976;24.168;2023-01-09T05:00:21;35.20;;;14.32;;
22007;SDS011;11168;56.976;24.168;2023-01-09T05:02:48;34.58;;;13.88;;
22007;SDS011;11168;56.976;24.168;2023-01-09T05:05:14;38.97;;;15.00;;
22007;SDS011;11168;56.976;24.168;2023-01-09T05:07:41;34.53;;;14.25;;
22007;SDS011;11168;56.976;24.168;2023-01-09T05:10:09;33.70;;;14.07;;
22007;SDS011;11168;56.976;24.168;2023-01-09T05:12:36;36.88;;;13.93;;
22007;SDS011;11168;56.976;24.168;2023-01-09T05:15:05;33.00;;;13.75;;
22007;SDS011;11168;56.976;24.168;2023-01-09T05:17:33;31.05;;;14.32;;
22007;SDS011;11168;56.976;24.168;2023-01-09T05:20:00;31.55;;;14.00;;
22007;SDS011;11168;56.976;24.168;2023-01-09T05:22:27;40.20;;;14.35;;
22007;SDS011;11168;56.976;24.168;2023-01-09T05:24:54;36.70;;;14.68;;
22007;SDS011;11168;56.976;24.168;2023-01-09T05:27:21;37.75;;;14.00;;
22007;SDS011;11168;56.976;24.168;2023-01-09T05:29:48;33.22;;;15.05;;
22007;SDS011;11168;56.976;24.168;2023-01-09T05:32:15;37.67;;;14.85;;
22007;SDS011;11168;56.976;24.168;2023-01-09T05:34:42;37.05;;;14.32;;
22007;SDS011;11168;56.976;24.168;2023-01-09T05:37:09;36.40;;;13.48;;
22007;SDS011;11168;56.976;24.168;2023-01-09T05:39:36;36.90;;;15.23;;
22007;SDS011;11168;56.976;24.168;2023-01-09T05:42:03;34.80;;;15.02;;
22007;SDS011;11168;56.976;24.168;2023-01-09T05:44:30;35.40;;;16.10;;
22007;SDS011;11168;56.976;24.168;2023-01-09T05:46:57;30.23;;;12.73;;
22007;SDS011;11168;56.976;24.168;2023-01-09T05:49:23;39.17;;;15.35;;
22007;SDS011;11168;56.976;24.168;2023-01-09T05:51:50;41.38;;;15.15;;
22007;SDS011;11168;56.976;24.168;2023-01-09T05:54:17;37.72;;;15.98;;
22007;SDS011;11168;56.976;24.168;2023-01-09T05:56:44;42.03;;;14.88;;
22007;SDS011;11168;56.976;24.168;2023-01-09T05:59:11;31.98;;;14.18;;
22007;SDS011;11168;56.976;24.168;2023-01-09T06:01:38;35.78;;;14.85;;
22007;SDS011;11168;56.976;24.168;2023-01-09T06:04:05;38.15;;;15.07;;
22007;SDS011;11168;56.976;24.168;2023-01-09T06:06:32;38.78;;;14.90;;
22007;SDS011;11168;56.976;24.168;2023-01-09T06:08:59;34.00;;;15.48;;
22007;SDS011;11168;56.976;24.168;2023-01-09T06:11:26;37.83;;;15.32;;
22007;SDS011;11168;56.976;24.168;2023-01-09T06:13:53;36.88;;;14.98;;
22007;SDS011;11168;56.976;24.168;2023-01-09T06:16:20;34.72;;;14.20;;
22007;SDS011;11168;56.976;24.168;2023-01-09T06:18:47;39.80;;;14.93;;
22007;SDS011;11168;56.976;24.168;2023-01-09T06:21:14;43.08;;;16.00;;
22007;SDS011;11168;56.976;24.168;2023-01-09T06:23:40;34.20;;;15.98;;
22007;SDS011;11168;56.976;24.168;2023-01-09T06:26:07;34.30;;;15.20;;
22007;SDS011;11168;56.976;24.168;2023-01-09T06:28:34;38.80;;;15.90;;
22007;SDS011;11168;56.976;24.168;2023-01-09T06:31:01;36.33;;;14.77;;
22007;SDS011;11168;56.976;24.168;2023-01-09T06:33:28;37.47;;;15.40;;
22007;SDS011;11168;56.976;24.168;2023-01-09T06:35:55;37.13;;;14.75;;
22007;SDS011;11168;56.976;24.168;2023-01-09T06:38:22;36.80;;;14.43;;
22007;SDS011;11168;56.976;24.168;2023-01-09T06:40:49;37.42;;;15.18;;
22007;SDS011;11168;56.976;24.168;2023-01-09T06:43:16;37.63;;;15.52;;
22007;SDS011;11168;56.976;24.168;2023-01-09T06:45:43;38.47;;;15.95;;
22007;SDS011;11168;56.976;24.168;2023-01-09T06:48:13;34.53;;;15.02;;
22007;SDS011;11168;56.976;24.168;2023-01-09T06:50:39;35.88;;;14.55;;
22007;SDS011;11168;56.976;24.168;2023-01-09T06:53:06;37.95;;;14.85;;
22007;SDS011;11168;56.976;24.168;2023-01-09T06:55:34;37.35;;;14.75;;
22007;SDS011;11168;56.976;24.168;2023-01-09T06:58:01;34.85;;;14.48;;
22007;SDS011;11168;56.976;24.168;2023-01-09T07:00:28;40.53;;;15.35;;
22007;SDS011;11168;56.976;24.168;2023-01-09T07:02:56;41.10;;;14.27;;
22007;SDS011;11168;56.976;24.168;2023-01-09T07:05:23;41.97;;;15.80;;
22007;SDS011;11168;56.976;24.168;2023-01-09T07:07:50;33.65;;;14.25;;
22007;SDS011;11168;56.976;24.168;2023-01-09T07:10:17;37.28;;;14.63;;
22007;SDS011;11168;56.976;24.168;2023-01-09T07:12:44;38.90;;;14.98;;
22007;SDS011;11168;56.976;24.168;2023-01-09T07:15:11;37.58;;;15.82;;
22007;SDS011;11168;56.976;24.168;2023-01-09T07:17:38;36.88;;;15.00;;
22007;SDS011;11168;56.976;24.168;2023-01-09T07:20:08;36.95;;;14.43;;
22007;SDS011;11168;56.976;24.168;2023-01-09T07:22:35;35.72;;;14.00;;
22007;SDS011;11168;56.976;24.168;2023-01-09T07:25:02;39.17;;;15.43;;
22007;SDS011;11168;56.976;24.168;2023-01-09T07:27:29;37.22;;;15.13;;
22007;SDS011;11168;56.976;24.168;2023-01-09T07:29:56;36.83;;;14.57;;
22007;SDS011;11168;56.976;24.168;2023-01-09T07:32:24;35.10;;;12.75;;
22007;SDS011;11168;56.976;24.168;2023-01-09T07:34:50;36.90;;;15.95;;
22007;SDS011;11168;56.976;24.168;2023-01-09T07:37:18;40.55;;;14.90;;
22007;SDS011;11168;56.976;24.168;2023-01-09T07:39:45;40.92;;;15.68;;
22007;SDS011;11168;56.976;24.168;2023-01-09T07:42:12;32.28;;;15.20;;
22007;SDS011;11168;56.976;24.168;2023-01-09T07:44:39;33.30;;;13.95;;
22007;SDS011;11168;56.976;24.168;2023-01-09T07:47:06;35.05;;;14.85;;
22007;SDS011;11168;56.976;24.168;2023-01-09T07:49:33;35.90;;;14.75;;
22007;SDS011;11168;56.976;24.168;2023-01-09T07:52:00;39.22;;;14.80;;
22007;SDS011;11168;56.976;24.168;2023-01-09T07:54:26;33.88;;;14.23;;
22007;SDS011;11168;56.976;24.168;2023-01-09T07:56:53;35.10;;;14.38;;
22007;SDS011;11168;56.976;24.168;2023-01-09T07:59:21;43.00;;;15.45;;
22007;SDS011;11168;56.976;24.168;2023-01-09T08:01:48;38.03;;;14.70;;
22007;SDS011;11168;56.976;24.168;2023-01-09T08:04:15;37.10;;;14.30;;
22007;SDS011;11168;56.976;24.168;2023-01-09T08:06:42;33.58;;;14.40;;
22007;SDS011;11168;56.976;24.168;2023-01-09T08:09:09;34.50;;;14.38;;
22007;SDS011;11168;56.976;24.168;2023-01-09T08:11:36;33.40;;;13.15;;
22007;SDS011;11168;56.976;24.168;2023-01-09T08:14:03;32.25;;;13.60;;
22007;SDS011;11168;56.976;24.168;2023-01-09T08:16:30;33.78;;;14.27;;
22007;SDS011;11168;56.976;24.168;2023-01-09T08:18:57;38.05;;;14.52;;
22007;SDS011;11168;56.976;24.168;2023-01-09T08:21:24;35.13;;;14.07;;
22007;SDS011;11168;56.976;24.168;2023-01-09T08:23:51;33.03;;;13.07;;
22007;SDS011;11168;56.976;24.168;2023-01-09T08:26:17;34.35;;;14.45;;
22007;SDS011;11168;56.976;24.168;2023-01-09T08:28:44;31.15;;;13.88;;
22007;SDS011;11168;56.976;24.168;2023-01-09T08:31:12;32.00;;;14.00;;
22007;SDS011;11168;56.976;24.168;2023-01-09T08:33:39;30.48;;;13.35;;
22007;SDS011;11168;56.976;24.168;2023-01-09T08:36:06;34.40;;;13.68;;
22007;SDS011;11168;56.976;24.168;2023-01-09T08:38:34;33.15;;;14.15;;
22007;SDS011;11168;56.976;24.168;2023-01-09T08:41:01;35.95;;;15.10;;
22007;SDS011;11168;56.976;24.168;2023-01-09T08:43:51;35.53;;;14.82;;
22007;SDS011;11168;56.976;24.168;2023-01-09T08:46:37;32.42;;;13.18;;
22007;SDS011;11168;56.976;24.168;2023-01-09T08:49:23;31.90;;;14.98;;
22007;SDS011;11168;56.976;24.168;2023-01-09T08:51:50;30.92;;;14.60;;
22007;SDS011;11168;56.976;24.168;2023-01-09T08:54:18;36.10;;;14.93;;
22007;SDS011;11168;56.976;24.168;2023-01-09T08:56:45;35.97;;;13.68;;
22007;SDS011;11168;56.976;24.168;2023-01-09T08:59:12;33.85;;;13.77;;
22007;SDS011;11168;56.976;24.168;2023-01-09T09:01:40;31.05;;;13.68;;
22007;SDS011;11168;56.976;24.168;2023-01-09T09:04:07;35.20;;;14.00;;
22007;SDS011;11168;56.976;24.168;2023-01-09T09:06:34;38.83;;;15.10;;
22007;SDS011;11168;56.976;24.168;2023-01-09T09:09:01;38.22;;;13.73;;
22007;SDS011;11168;56.976;24.168;2023-01-09T09:11:29;35.08;;;14.38;;
22007;SDS011;11168;56.976;24.168;2023-01-09T09:13:56;36.67;;;14.32;;
22007;SDS011;11168;56.976;24.168;2023-01-09T09:16:24;34.10;;;15.35;;
22007;SDS011;11168;56.976;24.168;2023-01-09T09:18:52;39.67;;;15.13;;
22007;SDS011;11168;56.976;24.168;2023-01-09T09:21:19;36.72;;;14.38;;
22007;SDS011;11168;56.976;24.168;2023-01-09T09:23:46;35.03;;;14.95;;
22007;SDS011;11168;56.976;24.168;2023-01-09T09:26:13;34.67;;;14.05;;
22007;SDS011;11168;56.976;24.168;2023-01-09T09:28:40;37.83;;;14.82;;
22007;SDS011;11168;56.976;24.168;2023-01-09T09:31:07;28.95;;;13.48;;
22007;SDS011;11168;56.976;24.168;2023-01-09T09:33:34;29.50;;;13.80;;
22007;SDS011;11168;56.976;24.168;2023-01-09T09:36:01;37.45;;;14.32;;
22007;SDS011;11168;56.976;24.168;2023-01-09T09:38:28;35.08;;;14.75;;
22007;SDS011;11168;56.976;24.168;2023-01-09T09:44:11;33.35;;;14.07;;
22007;SDS011;11168;56.976;24.168;2023-01-09T09:50:54;30.42;;;14.25;;
22007;SDS011;11168;56.976;24.168;2023-01-09T09:53:09;36.03;;;14.65;;
22007;SDS011;11168;56.976;24.168;2023-01-09T09:55:37;28.73;;;14.10;;
22007;SDS011;11168;56.976;24.168;2023-01-09T09:58:14;36.92;;;15.00;;
22007;SDS011;11168;56.976;24.168;2023-01-09T10:00:50;31.20;;;13.93;;
22007;SDS011;11168;56.976;24.168;2023-01-09T10:03:27;31.55;;;13.45;;
22007;SDS011;11168;56.976;24.168;2023-01-09T10:06:08;34.47;;;14.23;;
22007;SDS011;11168;56.976;24.168;2023-01-09T10:15:14;36.40;;;15.48;;
22007;SDS011;11168;56.976;24.168;2023-01-09T10:20:58;30.85;;;14.48;;
22007;SDS011;11168;56.976;24.168;2023-01-09T10:26:42;35.92;;;14.48;;
22007;SDS011;11168;56.976;24.168;2023-01-09T10:37:26;29.40;;;14.63;;
22007;SDS011;11168;56.976;24.168;2023-01-09T10:39:58;32.65;;;14.52;;
22007;SDS011;11168;56.976;24.168;2023-01-09T10:42:39;34.03;;;14.35;;
22007;SDS011;11168;56.976;24.168;2023-01-09T10:45:35;30.08;;;14.02;;
22007;SDS011;11168;56.976;24.168;2023-01-09T10:48:21;30.38;;;13.50;;
22007;SDS011;11168;56.976;24.168;2023-01-09T10:50:50;32.67;;;13.38;;
22007;SDS011;11168;56.976;24.168;2023-01-09T10:53:21;29.40;;;13.43;;
22007;SDS011;11168;56.976;24.168;2023-01-09T10:55:53;33.10;;;13.98;;
22007;SDS011;11168;56.976;24.168;2023-01-09T10:58:26;31.80;;;13.80;;
22007;SDS011;11168;56.976;24.168;2023-01-09T11:00:54;32.55;;;13.43;;
22007;SDS011;11168;56.976;24.168;2023-01-09T11:03:24;28.77;;;13.95;;
22007;SDS011;11168;56.976;24.168;2023-01-09T11:05:55;33.75;;;15.02;;
22007;SDS011;11168;56.976;24.168;2023-01-09T11:11:08;35.58;;;13.55;;
22007;SDS011;11168;56.976;24.168;2023-01-09T11:13:36;32.83;;;13.82;;
22007;SDS011;11168;56.976;24.168;2023-01-09T11:18:54;30.52;;;13.65;;
22007;SDS011;11168;56.976;24.168;2023-01-09T11:26:48;30.10;;;13.35;;
22007;SDS011;11168;56.976;24.168;2023-01-09T11:31:50;26.40;;;12.90;;
22007;SDS011;11168;56.976;24.168;2023-01-09T11:34:22;30.55;;;13.07;;
22007;SDS011;11168;56.976;24.168;2023-01-09T11:36:51;31.50;;;13.87;;
22007;SDS011;11168;56.976;24.168;2023-01-09T11:39:21;27.60;;;13.73;;
22007;SDS011;11168;56.976;24.168;2023-01-09T11:41:56;31.42;;;14.23;;
22007;SDS011;11168;56.976;24.168;2023-01-09T11:44:25;28.90;;;13.48;;
22007;SDS011;11168;56.976;24.168;2023-01-09T11:46:54;27.85;;;13.73;;
22007;SDS011;11168;56.976;24.168;2023-01-09T11:52:32;30.00;;;13.15;;
22007;SDS011;11168;56.976;24.168;2023-01-09T11:57:17;27.05;;;13.32;;
22007;SDS011;11168;56.976;24.168;2023-01-09T11:59:51;25.38;;;12.95;;
22007;SDS011;11168;56.976;24.168;2023-01-09T12:23:01;25.05;;;12.30;;
22007;SDS011;11168;56.976;24.168;2023-01-09T12:32:48;21.38;;;11.07;;
22007;SDS011;11168;56.976;24.168;2023-01-09T12:35:44;28.52;;;13.27;;
22007;SDS011;11168;56.976;24.168;2023-01-09T12:38:58;29.80;;;12.95;;
22007;SDS011;11168;56.976;24.168;2023-01-09T12:42:09;21.88;;;11.68;;
22007;SDS011;11168;56.976;24.168;2023-01-09T12:45:28;27.08;;;13.35;;
22007;SDS011;11168;56.976;24.168;2023-01-09T12:54:52;24.67;;;12.48;;
22007;SDS011;11168;56.976;24.168;2023-01-09T12:57:26;28.05;;;13.10;;
22007;SDS011;11168;56.976;24.168;2023-01-09T12:59:59;23.45;;;11.82;;
22007;SDS011;11168;56.976;24.168;2023-01-09T13:05:27;24.73;;;12.75;;
22007;SDS011;11168;56.976;24.168;2023-01-09T13:08:02;22.85;;;11.50;;
22007;SDS011;11168;56.976;24.168;2023-01-09T13:11:11;30.38;;;13.05;;
22007;SDS011;11168;56.976;24.168;2023-01-09T13:16:42;26.02;;;12.35;;
22007;SDS011;11168;56.976;24.168;2023-01-09T13:19:35;26.92;;;12.38;;
22007;SDS011;11168;56.976;24.168;2023-01-09T13:22:05;25.20;;;13.05;;
22007;SDS011;11168;56.976;24.168;2023-01-09T13:24:34;27.92;;;12.73;;
22007;SDS011;11168;56.976;24.168;2023-01-09T13:27:10;26.60;;;13.02;;
22007;SDS011;11168;56.976;24.168;2023-01-09T13:29:44;25.98;;;12.52;;
22007;SDS011;11168;56.976;24.168;2023-01-09T13:32:33;24.17;;;12.70;;
22007;SDS011;11168;56.976;24.168;2023-01-09T13:35:22;28.45;;;12.18;;
22007;SDS011;11168;56.976;24.168;2023-01-09T13:37:50;30.10;;;14.02;;
22007;SDS011;11168;56.976;24.168;2023-01-09T13:50:36;31.75;;;13.57;;
22007;SDS011;11168;56.976;24.168;2023-01-09T13:58:29;28.20;;;13.13;;
22007;SDS011;11168;56.976;24.168;2023-01-09T14:06:35;30.70;;;13.20;;
22007;SDS011;11168;56.976;24.168;2023-01-09T14:09:24;32.28;;;13.65;;
22007;SDS011;11168;56.976;24.168;2023-01-09T14:12:02;27.48;;;13.35;;
22007;SDS011;11168;56.976;24.168;2023-01-09T14:14:31;28.05;;;13.90;;
22007;SDS011;11168;56.976;24.168;2023-01-09T14:17:04;30.70;;;13.93;;
22007;SDS011;11168;56.976;24.168;2023-01-09T14:19:45;27.92;;;14.60;;
22007;SDS011;11168;56.976;24.168;2023-01-09T14:22:34;33.55;;;14.20;;
22007;SDS011;11168;56.976;24.168;2023-01-09T14:25:22;29.55;;;14.55;;
22007;SDS011;11168;56.976;24.168;2023-01-09T14:33:01;29.33;;;14.25;;
22007;SDS011;11168;56.976;24.168;2023-01-09T14:38:05;29.38;;;15.63;;
22007;SDS011;11168;56.976;24.168;2023-01-09T14:40:47;34.08;;;16.60;;
22007;SDS011;11168;56.976;24.168;2023-01-09T14:43:31;30.75;;;14.73;;
22007;SDS011;11168;56.976;24.168;2023-01-09T14:46:36;29.60;;;15.15;;
22007;SDS011;11168;56.976;24.168;2023-01-09T14:49:05;30.92;;;14.07;;
22007;SDS011;11168;56.976;24.168;2023-01-09T14:51:52;32.13;;;14.80;;
22007;SDS011;11168;56.976;24.168;2023-01-09T14:54:33;31.00;;;14.80;;
22007;SDS011;11168;56.976;24.168;2023-01-09T14:57:27;32.20;;;14.73;;
22007;SDS011;11168;56.976;24.168;2023-01-09T15:00:15;27.45;;;14.30;;
22007;SDS011;11168;56.976;24.168;2023-01-09T15:02:44;36.75;;;15.07;;
22007;SDS011;11168;56.976;24.168;2023-01-09T15:05:13;28.15;;;14.27;;
22007;SDS011;11168;56.976;24.168;2023-01-09T15:07:50;33.53;;;14.63;;
22007;SDS011;11168;56.976;24.168;2023-01-09T15:10:22;32.95;;;14.48;;
22007;SDS011;11168;56.976;24.168;2023-01-09T15:12:53;28.60;;;14.73;;
22007;SDS011;11168;56.976;24.168;2023-01-09T15:15:25;30.77;;;14.18;;
22007;SDS011;11168;56.976;24.168;2023-01-09T15:18:03;32.67;;;15.60;;
22007;SDS011;11168;56.976;24.168;2023-01-09T15:20:33;34.40;;;14.65;;
22007;SDS011;11168;56.976;24.168;2023-01-09T15:23:00;36.17;;;14.55;;
22007;SDS011;11168;56.976;24.168;2023-01-09T15:25:34;34.75;;;16.50;;
22007;SDS011;11168;56.976;24.168;2023-01-09T15:31:02;36.67;;;16.60;;
22007;SDS011;11168;56.976;24.168;2023-01-09T15:33:42;38.70;;;15.98;;
22007;SDS011;11168;56.976;24.168;2023-01-09T15:36:21;32.10;;;15.60;;
22007;SDS011;11168;56.976;24.168;2023-01-09T15:38:53;31.38;;;15.25;;
22007;SDS011;11168;56.976;24.168;2023-01-09T15:41:28;34.47;;;16.08;;
22007;SDS011;11168;56.976;24.168;2023-01-09T15:44:18;31.67;;;15.55;;
22007;SDS011;11168;56.976;24.168;2023-01-09T15:46:49;37.47;;;16.25;;
22007;SDS011;11168;56.976;24.168;2023-01-09T15:49:17;36.20;;;15.45;;
22007;SDS011;11168;56.976;24.168;2023-01-09T15:51:46;33.50;;;16.13;;
22007;SDS011;11168;56.976;24.168;2023-01-09T15:54:19;34.10;;;16.80;;
22007;SDS011;11168;56.976;24.168;2023-01-09T15:59:50;36.25;;;16.15;;
22007;SDS011;11168;56.976;24.168;2023-01-09T16:02:17;36.55;;;15.73;;
22007;SDS011;11168;56.976;24.168;2023-01-09T16:05:08;31.10;;;15.20;;
22007;SDS011;11168;56.976;24.168;2023-01-09T16:07:44;30.45;;;15.88;;
22007;SDS011;11168;56.976;24.168;2023-01-09T16:10:21;35.33;;;15.73;;
22007;SDS011;11168;56.976;24.168;2023-01-09T16:12:51;33.13;;;15.85;;
22007;SDS011;11168;56.976;24.168;2023-01-09T16:15:20;35.35;;;16.02;;
22007;SDS011;11168;56.976;24.168;2023-01-09T16:21:15;33.38;;;15.30;;
22007;SDS011;11168;56.976;24.168;2023-01-09T16:23:50;31.73;;;15.20;;
22007;SDS011;11168;56.976;24.168;2023-01-09T16:26:21;34.63;;;15.88;;
22007;SDS011;11168;56.976;24.168;2023-01-09T16:28:51;40.55;;;18.13;;
22007;SDS011;11168;56.976;24.168;2023-01-09T16:31:28;29.33;;;15.40;;
22007;SDS011;11168;56.976;24.168;2023-01-09T16:33:59;31.35;;;15.07;;
22007;SDS011;11168;56.976;24.168;2023-01-09T16:36:34;33.55;;;15.45;;
22007;SDS011;11168;56.976;24.168;2023-01-09T16:39:02;34.08;;;15.73;;
22007;SDS011;11168;56.976;24.168;2023-01-09T16:41:29;30.17;;;14.15;;
22007;SDS011;11168;56.976;24.168;2023-01-09T16:44:15;33.97;;;15.48;;
22007;SDS011;11168;56.976;24.168;2023-01-09T16:46:44;34.72;;;14.65;;
22007;SDS011;11168;56.976;24.168;2023-01-09T16:49:18;27.60;;;14.13;;
22007;SDS011;11168;56.976;24.168;2023-01-09T16:51:49;31.17;;;14.52;;
22007;SDS011;11168;56.976;24.168;2023-01-09T16:54:16;27.67;;;14.15;;
22007;SDS011;11168;56.976;24.168;2023-01-09T16:56:46;32.08;;;13.75;;
22007;SDS011;11168;56.976;24.168;2023-01-09T16:59:20;31.88;;;13.98;;
22007;SDS011;11168;56.976;24.168;2023-01-09T17:01:50;31.08;;;14.85;;
22007;SDS011;11168;56.976;24.168;2023-01-09T17:04:18;36.22;;;13.65;;
22007;SDS011;11168;56.976;24.168;2023-01-09T17:06:48;30.52;;;13.20;;